Time;durP1;ratioP1;P1;durP2;ratioP2;P2;SDS_P1;SDS_P2;PMS_P1;PMS_P2;Temp;Humidity;BMP_temperature;BMP_pressure;BME280_temperature;BME280_humidity;BME280_pressure;Samples;Min_cycle;Max_cycle;Signal;HPM_P1;HPM_P2
2021/05/11 00:00:48;;;;;;;9.32;3.55;;;;;;;14.15;37.68;100753.69;3375955;29;20508;-70
2021/05/11 00:02:29;;;;;;;6.18;3.40;;;;;;;14.13;37.65;100753.06;3375695;29;20687;-70
2021/05/11 00:04:11;;;;;;;4.55;2.78;;;;;;;14.11;37.70;100755.09;3379980;29;20043;-71
2021/05/11 00:05:51;;;;;;;5.65;3.70;;;;;;;14.05;37.89;100751.31;3382269;29;20556;-71
2021/05/11 00:07:32;;;;;;;5.90;3.42;;;;;;;14.10;37.95;100761.50;3383284;29;20048;-72
2021/05/11 00:09:31;;;;;;;3.75;2.75;;;;;;;14.12;37.89;100762.97;3383276;29;20079;-71
2021/05/11 00:11:12;;;;;;;7.22;2.83;;;;;;;14.08;38.19;100758.16;3380380;29;20100;-71
2021/05/11 00:12:53;;;;;;;5.80;3.47;;;;;;;14.02;38.13;100750.88;3382182;29;20151;-71
2021/05/11 00:14:34;;;;;;;7.43;3.63;;;;;;;14.07;38.26;100760.00;3383120;29;20162;-71
2021/05/11 00:16:15;;;;;;;4.93;2.92;;;;;;;14.06;38.19;100754.84;3382359;29;20060;-70
2021/05/11 00:17:56;;;;;;;8.40;3.58;;;;;;;14.04;38.17;100754.19;3382425;29;20048;-71
2021/05/11 00:19:37;;;;;;;4.18;2.92;;;;;;;13.93;38.17;100737.59;3378866;29;20040;-71
2021/05/11 00:21:17;;;;;;;5.28;2.92;;;;;;;14.03;38.17;100750.69;3378588;29;20048;-71
2021/05/11 00:22:59;;;;;;;4.65;3.42;;;;;;;14.05;38.35;100753.19;3383068;29;20537;-71
2021/05/11 00:24:40;;;;;;;9.65;3.63;;;;;;;14.04;38.27;100757.69;3383403;29;20041;-71
2021/05/11 00:26:21;;;;;;;5.25;3.40;;;;;;;14.03;38.19;100755.22;3383068;29;20092;-70
2021/05/11 00:28:04;;;;;;;6.68;3.28;;;;;;;14.02;38.31;100750.88;3382675;29;20083;-72
2021/05/11 00:29:44;;;;;;;3.80;3.25;;;;;;;14.00;38.46;100752.94;3379001;29;20113;-71
2021/05/11 00:31:25;;;;;;;9.60;3.95;;;;;;;13.99;38.54;100752.06;3377632;29;20040;-71
2021/05/11 00:33:06;;;;;;;3.45;3.10;;;;;;;13.99;38.62;100756.59;3387407;29;20424;-71
2021/05/11 00:34:46;;;;;;;4.47;3.17;;;;;;;13.95;38.34;100748.97;3382807;29;20048;-72
2021/05/11 00:36:27;;;;;;;4.72;3.55;;;;;;;13.95;38.62;100754.31;3383213;29;20070;-71
2021/05/11 00:38:08;;;;;;;5.78;3.47;;;;;;;13.95;38.48;100761.53;3382754;29;20044;-71
2021/05/11 00:39:49;;;;;;;4.85;2.97;;;;;;;13.91;38.78;100755.72;3381239;29;20130;-71
2021/05/11 00:41:30;;;;;;;4.88;4.07;;;;;;;13.94;38.56;100757.22;3379339;29;20048;-71
2021/05/11 00:43:11;;;;;;;5.03;3.58;;;;;;;13.93;38.68;100756.34;3380274;29;20397;-70
2021/05/11 00:44:52;;;;;;;10.15;3.97;;;;;;;13.93;38.73;100764.38;3382012;29;20534;-71
2021/05/11 00:46:34;;;;;;;9.15;3.83;;;;;;;13.91;38.72;100760.25;3383022;29;20081;-72
2021/05/11 00:48:15;;;;;;;6.60;3.42;;;;;;;13.90;38.81;100753.22;3376380;29;20041;-71
2021/05/11 00:49:56;;;;;;;5.22;3.78;;;;;;;13.89;38.76;100757.78;3388000;29;20055;-72
2021/05/11 00:51:36;;;;;;;6.55;3.83;;;;;;;13.89;38.79;100757.78;3386665;29;20082;-71
2021/05/11 00:53:17;;;;;;;8.18;3.45;;;;;;;13.87;38.71;100765.16;3382408;29;20056;-71
2021/05/11 00:54:58;;;;;;;7.10;4.32;;;;;;;13.86;38.92;100765.34;3379337;29;20055;-71
2021/05/11 00:56:39;;;;;;;3.95;2.88;;;;;;;13.83;39.07;100769.22;3379956;29;20108;-71
2021/05/11 00:58:19;;;;;;;6.70;3.40;;;;;;;13.83;38.93;100769.22;3379799;29;20076;-71
2021/05/11 01:00:07;;;;;;;7.20;3.33;;;;;;;13.82;39.12;100772.94;3381553;29;20415;-71
2021/05/11 01:01:47;;;;;;;5.22;2.92;;;;;;;13.80;39.19;100771.47;3381475;29;20054;-72
2021/05/11 01:03:28;;;;;;;8.45;3.50;;;;;;;13.79;38.99;100776.00;3380696;29;20044;-72
2021/05/11 01:05:09;;;;;;;7.35;3.08;;;;;;;13.82;39.22;100780.16;3380956;29;20048;-71
2021/05/11 01:06:51;;;;;;;4.90;3.47;;;;;;;13.81;39.28;100782.00;3383013;29;20076;-72
2021/05/11 01:08:31;;;;;;;6.05;3.30;;;;;;;13.78;39.11;100774.31;3382925;29;20661;-70
2021/05/11 01:10:13;;;;;;;5.13;3.08;;;;;;;13.78;39.12;100778.84;3378892;29;20048;-72
2021/05/11 01:11:54;;;;;;;6.33;3.33;;;;;;;13.75;39.12;100778.22;3382043;29;20044;-72
2021/05/11 01:13:35;;;;;;;3.15;2.65;;;;;;;13.68;39.13;100776.47;3379170;29;20292;-70
2021/05/11 01:15:17;;;;;;;4.55;2.90;;;;;;;13.72;39.00;100783.13;3386446;29;20047;-71
2021/05/11 01:17:00;;;;;;;3.78;3.10;;;;;;;13.71;39.00;100776.94;3375320;29;20559;-71
2021/05/11 01:18:41;;;;;;;2.75;2.53;;;;;;;13.71;39.30;100784.16;3377495;29;20032;-70
2021/05/11 01:20:28;;;;;;;4.33;3.20;;;;;;;13.69;39.18;100783.50;3383851;29;20043;-70
2021/05/11 01:26:15;;;;;;;4.50;3.13;;;;;;;13.66;39.24;100789.25;3382611;29;20040;-70
2021/05/11 01:30:33;;;;;;;4.90;3.40;;;;;;;13.64;39.36;100785.91;3374827;29;20048;-71
2021/05/11 01:48:01;;;;;;;5.88;2.95;;;;;;;13.53;39.41;100790.75;3383741;29;20047;-71
2021/05/11 01:51:55;;;;;;;5.28;3.03;;;;;;;13.55;39.53;100792.38;3383862;29;19923;-71
2021/05/11 02:22:36;;;;;;;4.65;2.78;;;;;;;13.71;39.73;100802.91;3384576;29;20036;-72
2021/05/11 02:24:15;;;;;;;5.15;3.17;;;;;;;13.84;39.61;100818.31;3375630;29;20174;-71
2021/05/11 02:25:56;;;;;;;7.43;3.70;;;;;;;13.88;39.52;100825.78;3380504;29;20082;-71
2021/05/11 02:27:38;;;;;;;3.78;2.35;;;;;;;13.89;39.49;100816.72;3384218;29;20508;-70
2021/05/11 02:29:18;;;;;;;3.78;2.25;;;;;;;13.89;39.57;100816.72;3384623;29;20213;-71
2021/05/11 02:30:59;;;;;;;6.80;2.85;;;;;;;13.94;39.66;100816.16;3384138;29;20055;-70
2021/05/11 02:32:41;;;;;;;3.83;2.33;;;;;;;13.95;39.56;100815.97;3382340;29;20040;-70
2021/05/11 02:34:22;;;;;;;6.53;3.38;;;;;;;13.96;39.42;100817.66;3381968;29;20476;-71
2021/05/11 02:36:03;;;;;;;5.30;3.38;;;;;;;13.98;39.57;100819.28;3382083;29;20052;-72
2021/05/11 02:37:45;;;;;;;3.93;2.50;;;;;;;13.96;39.60;100812.28;3382457;29;20134;-72
2021/05/11 02:39:26;;;;;;;4.72;3.38;;;;;;;14.00;39.43;100807.38;3381850;29;20884;-71
2021/05/11 02:41:06;;;;;;;4.97;3.15;;;;;;;14.04;39.43;100823.88;3381922;29;20037;-70
2021/05/11 02:42:51;;;;;;;4.93;3.03;;;;;;;14.04;39.35;100799.75;3383321;29;20036;-70
2021/05/11 02:44:42;;;;;;;9.70;3.67;;;;;;;14.08;39.50;100799.19;3381989;29;20032;-71
2021/05/11 02:46:23;;;;;;;4.23;3.00;;;;;;;14.12;39.37;100808.53;3386718;29;20407;-71
2021/05/11 02:48:04;;;;;;;4.53;3.10;;;;;;;14.14;39.70;100802.97;3363320;29;20301;-71
2021/05/11 02:49:48;;;;;;;7.18;3.47;;;;;;;14.17;39.49;100805.25;3386848;29;20035;-71
2021/05/11 02:51:29;;;;;;;5.25;3.10;;;;;;;14.17;39.55;100807.94;3382588;29;20043;-71
2021/05/11 02:53:09;;;;;;;5.88;3.30;;;;;;;14.18;39.40;100809.63;3381523;29;20116;-70
2021/05/11 02:55:09;;;;;;;6.13;2.88;;;;;;;14.13;39.46;100802.13;3381541;29;20060;-71
2021/05/11 02:56:50;;;;;;;3.95;2.67;;;;;;;14.16;39.10;100806.28;3383582;29;20044;-72
2021/05/11 02:58:33;;;;;;;9.40;3.00;;;;;;;14.17;39.22;100805.25;3384129;29;20043;-72
2021/05/11 03:00:18;;;;;;;5.00;2.88;;;;;;;14.17;39.49;100802.56;3384182;29;20071;-70
2021/05/11 03:01:59;;;;;;;8.57;3.13;;;;;;;14.22;39.25;100810.88;3385073;29;20046;-71
2021/05/11 03:03:40;;;;;;;5.05;3.30;;;;;;;14.26;39.63;100812.16;3381797;29;20550;-71
2021/05/11 03:05:21;;;;;;;5.00;2.80;;;;;;;14.27;39.52;100797.72;3379597;29;20051;-71
2021/05/11 03:07:02;;;;;;;6.45;3.67;;;;;;;14.35;39.59;100811.03;3383615;29;20051;-71
2021/05/11 03:08:44;;;;;;;5.57;3.08;;;;;;;14.38;39.42;100815.19;3381780;29;20071;-71
2021/05/11 03:10:24;;;;;;;;;;;;;;;14.49;39.28;100811.97;3382081;29;20067;-71
2021/05/11 03:12:05;;;;;;;7.05;2.92;;;;;;;14.42;39.51;100805.72;3383998;29;19994;-71
2021/05/11 03:13:46;;;;;;;2.83;2.30;;;;;;;14.38;39.44;100801.78;3377124;29;20077;-70
2021/05/11 03:15:27;;;;;;;5.55;2.75;;;;;;;14.48;39.48;100817.53;3384099;29;20072;-70
2021/05/11 03:17:07;;;;;;;7.28;2.63;;;;;;;14.49;39.41;100814.66;3384356;29;20048;-70
2021/05/11 03:18:48;;;;;;;7.00;3.17;;;;;;;14.51;39.63;100811.78;3383628;29;20130;-71
2021/05/11 03:20:29;;;;;;;6.13;2.92;;;;;;;14.56;39.46;100818.28;3385394;29;20044;-71
2021/05/11 03:22:09;;;;;;;6.10;2.90;;;;;;;14.56;39.38;100826.31;3381418;29;20131;-70
2021/05/11 03:23:50;;;;;;;3.63;2.55;;;;;;;14.59;39.35;100823.25;3375227;29;20075;-71
2021/05/11 03:25:31;;;;;;;3.55;2.50;;;;;;;14.63;39.28;100818.31;3385709;29;20075;-71
2021/05/11 03:27:14;;;;;;;3.75;2.47;;;;;;;14.64;39.42;100824.50;3381116;29;20056;-72
2021/05/11 03:28:55;;;;;;;5.38;2.88;;;;;;;14.70;39.33;100824.56;3382632;29;20508;-71
2021/05/11 03:30:39;;;;;;;7.13;2.72;;;;;;;14.72;39.25;100816.34;3386767;29;20044;-71
2021/05/11 03:32:20;;;;;;;5.15;2.55;;;;;;;14.77;39.30;100820.09;3372293;29;20775;-71
2021/05/11 03:34:00;;;;;;;6.88;2.85;;;;;;;14.82;39.38;100816.84;3377389;29;20048;-72
2021/05/11 03:35:41;;;;;;;3.90;2.55;;;;;;;14.90;39.36;100826.59;3383955;29;20408;-71
2021/05/11 03:37:22;;;;;;;4.97;2.50;;;;;;;14.92;39.34;100825.38;3383794;29;20131;-71
2021/05/11 03:39:06;;;;;;;7.18;3.03;;;;;;;14.97;39.21;100825.63;3383581;29;20515;-71
2021/05/11 03:40:46;;;;;;;4.57;2.70;;;;;;;15.01;39.19;100828.75;3382048;29;20048;-71
2021/05/11 03:42:32;;;;;;;6.65;2.60;;;;;;;15.03;39.24;100822.16;3378911;29;20040;-70
2021/05/11 03:44:15;;;;;;;8.15;3.17;;;;;;;15.08;38.95;100828.81;3382609;29;20388;-70
2021/05/11 03:46:01;;;;;;;10.77;2.97;;;;;;;15.15;39.02;100837.69;3389045;29;20169;-70
2021/05/11 03:47:45;;;;;;;33.97;21.77;;;;;;;15.18;39.00;100832.78;3381514;29;20084;-71
2021/05/11 03:49:25;;;;;;;18.67;12.23;;;;;;;15.20;39.00;100830.72;3366982;29;20036;-70
2021/05/11 03:51:06;;;;;;;9.38;5.55;;;;;;;15.24;38.86;100837.38;3378101;29;20539;-71
2021/05/11 03:52:48;;;;;;;12.73;5.65;;;;;;;15.33;38.74;100842.56;3383028;29;20056;-71
2021/05/11 03:54:28;;;;;;;15.00;4.32;;;;;;;15.35;38.80;100841.34;3366718;29;20536;-71
2021/05/11 03:56:09;;;;;;;15.02;3.70;;;;;;;15.40;38.71;100843.44;3378836;29;20052;-71
2021/05/11 03:57:50;;;;;;;10.27;3.33;;;;;;;15.45;38.86;100835.63;3375097;29;20164;-71
2021/05/11 03:59:31;;;;;;;16.13;2.70;;;;;;;15.53;38.89;100840.84;3382145;29;20040;-71
2021/05/11 04:01:12;;;;;;;7.20;2.28;;;;;;;15.58;38.79;100835.69;3350454;29;20037;-71
2021/05/11 04:02:52;;;;;;;3.58;2.45;;;;;;;15.64;39.22;100840.28;3383156;29;20052;-71
2021/05/11 04:04:34;;;;;;;4.22;2.35;;;;;;;15.66;38.60;100835.53;3380987;29;20483;-72
2021/05/11 04:06:15;;;;;;;2.03;1.60;;;;;;;15.74;38.64;100836.41;3367353;29;20045;-71
2021/05/11 04:07:59;;;;;;;2.53;1.98;;;;;;;15.79;38.60;100833.97;3379719;29;20524;-71
2021/05/11 04:09:49;;;;;;;3.47;2.03;;;;;;;15.84;38.65;100839.56;3383520;29;20496;-71
2021/05/11 04:17:11;;;;;;;6.88;2.17;;;;;;;16.02;38.32;100837.16;3384192;29;20044;-71
2021/05/11 04:18:53;;;;;;;5.78;2.08;;;;;;;16.09;38.37;100845.25;3384571;29;20050;-73
2021/05/11 04:20:34;;;;;;;7.47;1.90;;;;;;;16.16;38.39;100839.88;3380793;29;20048;-73
2021/05/11 04:22:15;;;;;;;4.97;2.63;;;;;;;16.19;38.39;100834.09;3381201;29;20136;-73
2021/05/11 04:23:56;;;;;;;10.60;6.10;;;;;;;16.24;38.31;100839.72;3381729;29;20123;-72
2021/05/11 04:25:36;;;;;;;8.70;4.00;;;;;;;16.27;38.28;100842.81;3383025;29;20036;-72
2021/05/11 04:27:17;;;;;;;6.75;3.63;;;;;;;16.34;38.16;100832.03;3383313;29;20560;-71
2021/05/11 04:28:58;;;;;;;6.38;3.00;;;;;;;16.39;38.08;100840.31;3379539;29;20041;-72
2021/05/11 04:30:38;;;;;;;8.73;2.25;;;;;;;16.45;38.03;100836.84;3383371;29;20044;-72
2021/05/11 04:32:19;;;;;;;5.45;2.50;;;;;;;16.52;37.95;100837.69;3383001;29;20095;-73
2021/05/11 04:34:00;;;;;;;2.15;1.95;;;;;;;16.57;38.08;100831.66;3381842;29;20044;-72
2021/05/11 04:35:40;;;;;;;4.38;1.83;;;;;;;16.63;37.95;100830.84;3382848;29;20044;-72
2021/05/11 04:37:21;;;;;;;3.15;2.33;;;;;;;16.70;37.96;100836.22;3382889;29;20052;-72
2021/05/11 04:39:03;;;;;;;3.45;1.80;;;;;;;16.74;37.88;100832.09;3381051;29;20172;-72
2021/05/11 04:40:44;;;;;;;5.10;2.15;;;;;;;16.78;37.87;100834.22;3376209;29;20044;-72
2021/05/11 04:42:25;;;;;;;4.03;1.90;;;;;;;16.81;37.59;100832.97;3383611;29;20136;-71
2021/05/11 04:44:06;;;;;;;4.43;2.40;;;;;;;16.84;37.96;100837.94;3382518;29;20055;-71
2021/05/11 04:45:47;;;;;;;3.78;1.90;;;;;;;16.90;37.68;100831.69;3380881;29;20048;-72
2021/05/11 04:47:47;;;;;;;3.90;1.88;;;;;;;16.98;37.53;100841.44;3380350;29;20036;-72
2021/05/11 04:49:29;;;;;;;6.43;1.95;;;;;;;17.03;37.45;100836.25;3380535;29;20048;-73
2021/05/11 04:51:10;;;;;;;4.07;2.35;;;;;;;17.10;37.66;100838.94;3382867;29;20211;-73
2021/05/11 04:52:51;;;;;;;2.60;2.00;;;;;;;17.16;37.70;100841.63;3381410;29;20102;-71
2021/05/11 04:54:50;;;;;;;2.05;1.85;;;;;;;17.22;37.71;100826.50;3381181;29;20091;-72
2021/05/11 04:56:31;;;;;;;6.57;2.30;;;;;;;17.23;37.49;100823.56;3380118;29;20456;-72
2021/05/11 04:58:11;;;;;;;3.78;2.03;;;;;;;17.31;37.42;100825.22;3380248;29;20411;-72
2021/05/11 04:59:53;;;;;;;3.00;1.88;;;;;;;17.36;37.41;100829.97;3367891;29;20132;-71
2021/05/11 05:01:35;;;;;;;4.65;1.90;;;;;;;17.41;37.44;100831.00;3383497;29;20048;-71
2021/05/11 05:03:17;;;;;;;6.18;1.92;;;;;;;17.46;37.16;100829.56;3379657;29;20040;-73
2021/05/11 05:04:57;;;;;;;;;;;;;;;17.60;37.31;100825.75;3382718;29;20048;-71
2021/05/11 05:06:38;;;;;;;5.57;1.90;;;;;;;17.60;37.24;100831.16;3380131;29;19982;-71
2021/05/11 05:08:19;;;;;;;6.53;2.22;;;;;;;17.64;37.23;100840.47;3378080;29;20049;-73
2021/05/11 05:10:00;;;;;;;2.17;1.25;;;;;;;17.69;37.17;100829.06;3382253;29;20040;-72
2021/05/11 05:11:41;;;;;;;4.53;2.50;;;;;;;17.74;37.14;100826.56;3382420;29;20048;-72
2021/05/11 05:13:24;;;;;;;5.22;1.60;;;;;;;17.76;36.65;100828.00;3383941;29;20172;-71
2021/05/11 05:15:06;;;;;;;2.90;1.80;;;;;;;17.80;36.84;100818.44;3387138;29;20037;-73
2021/05/11 05:16:46;;;;;;;2.30;1.40;;;;;;;17.90;36.89;100825.28;3375718;29;20048;-72
2021/05/11 05:18:28;;;;;;;6.15;1.52;;;;;;;17.99;36.84;100834.75;3368094;29;20044;-73
2021/05/11 05:20:09;;;;;;;2.38;1.73;;;;;;;18.04;36.72;100819.59;3363667;29;20408;-73
2021/05/11 05:21:50;;;;;;;2.45;1.67;;;;;;;18.13;36.92;100825.56;3375682;29;20045;-71
2021/05/11 05:23:36;;;;;;;3.58;1.67;;;;;;;18.20;36.87;100814.72;3385255;29;20465;-73
2021/05/11 05:25:23;;;;;;;1.45;1.17;;;;;;;18.27;36.80;100824.41;3379700;29;20532;-73
2021/05/11 05:27:14;;;;;;;4.93;1.67;;;;;;;18.34;36.41;100826.25;3363995;29;20037;-73
2021/05/11 05:28:57;;;;;;;2.53;1.30;;;;;;;18.39;36.67;100823.75;3369735;29;20048;-72
2021/05/11 05:30:37;;;;;;;7.13;1.52;;;;;;;18.41;36.36;100816.25;3370064;29;20129;-72
2021/05/11 05:32:18;;;;;;;2.28;1.25;;;;;;;18.46;36.36;100819.13;3382284;29;20040;-71
2021/05/11 05:33:59;;;;;;;6.10;1.60;;;;;;;18.44;36.02;100813.94;3377699;29;20091;-72
2021/05/11 05:35:40;;;;;;;2.22;1.10;;;;;;;18.50;36.35;100814.94;3386353;29;20040;-72
2021/05/11 05:37:21;;;;;;;2.78;1.23;;;;;;;18.52;36.32;100818.25;3382696;29;20043;-73
2021/05/11 05:39:02;;;;;;;3.05;1.20;;;;;;;18.60;36.04;100809.88;3382510;29;20382;-71
2021/05/11 05:40:42;;;;;;;4.75;1.58;;;;;;;18.63;36.30;100806.72;3384983;29;20052;-71
2021/05/11 05:42:23;;;;;;;5.80;1.70;;;;;;;18.70;36.23;100815.59;3385154;29;20579;-72
2021/05/11 05:44:04;;;;;;;4.88;1.40;;;;;;;18.75;35.78;100812.28;3377651;29;20037;-71
2021/05/11 05:45:45;;;;;;;1.33;1.13;;;;;;;18.81;36.07;100813.25;3380546;29;20079;-71
2021/05/11 05:47:26;;;;;;;1.52;1.20;;;;;;;18.86;36.02;100805.31;3387437;29;20036;-72
2021/05/11 05:49:09;;;;;;;2.03;1.40;;;;;;;18.93;36.02;100814.19;3371315;29;20074;-71
2021/05/11 05:50:54;;;;;;;2.38;1.67;;;;;;;18.97;35.70;100809.97;3381423;29;20043;-72
2021/05/11 05:52:38;;;;;;;2.80;1.10;;;;;;;19.01;35.59;100805.81;3385235;29;20045;-72
2021/05/11 05:54:19;;;;;;;2.88;1.60;;;;;;;19.03;35.61;100803.72;3385075;29;20483;-71
2021/05/11 05:56:01;;;;;;;4.55;1.60;;;;;;;19.05;35.26;100798.91;3383334;29;20044;-71
2021/05/11 05:57:42;;;;;;;2.03;1.20;;;;;;;19.06;35.32;100800.56;3385127;29;20040;-71
2021/05/11 05:59:23;;;;;;;2.38;1.42;;;;;;;19.07;35.35;100794.09;3386115;29;20127;-73
2021/05/11 06:01:09;;;;;;;2.80;1.75;;;;;;;19.13;35.39;100798.63;3379395;29;20152;-72
2021/05/11 06:02:52;;;;;;;3.00;2.00;;;;;;;19.22;35.45;100798.31;3384459;29;20047;-71
2021/05/11 06:04:33;;;;;;;2.67;1.35;;;;;;;19.32;35.09;100796.75;3382109;29;20032;-71
2021/05/11 06:06:13;;;;;;;3.17;1.52;;;;;;;19.39;34.93;100799.38;3375898;29;20071;-70
2021/05/11 06:07:54;;;;;;;3.00;1.40;;;;;;;19.48;35.14;100800.72;3387179;29;20139;-71
2021/05/11 06:09:35;;;;;;;3.42;1.52;;;;;;;19.55;34.76;100800.66;3378965;29;20047;-70
2021/05/11 06:11:37;;;;;;;1.70;1.17;;;;;;;19.67;34.65;100798.03;3372555;29;20045;-71
2021/05/11 06:13:20;;;;;;;3.70;1.58;;;;;;;19.83;34.70;100797.41;3387430;29;20403;-70
2021/05/11 06:17:04;;;;;;;2.33;1.27;;;;;;;19.94;34.26;100783.09;3383549;29;20040;-70
2021/05/11 06:17:20;;;;;;;3.95;1.77;;;;;;;20.10;34.30;100797.03;3376200;29;20072;-72
2021/05/11 06:19:02;;;;;;;3.05;1.20;;;;;;;20.25;33.54;100803.69;3377799;29;20051;-73
2021/05/11 06:20:42;;;;;;;5.10;1.23;;;;;;;20.44;33.85;100804.41;3385381;29;20564;-72
2021/05/11 06:22:23;;;;;;;4.03;1.40;;;;;;;20.59;33.38;100795.06;3382179;29;20073;-71
2021/05/11 06:24:04;;;;;;;1.83;1.27;;;;;;;20.71;33.08;100795.09;3381696;29;20051;-72
2021/05/11 06:25:45;;;;;;;2.10;1.20;;;;;;;20.89;32.85;100801.22;3385704;29;20040;-71
2021/05/11 06:27:44;;;;;;;3.15;1.25;;;;;;;21.04;32.92;100802.63;3391971;29;20353;-72
2021/05/11 06:29:28;;;;;;;4.40;1.40;;;;;;;21.26;32.75;100794.72;3388714;29;20595;-70
2021/05/11 06:31:09;;;;;;;2.20;1.35;;;;;;;21.39;32.29;100793.66;3396850;29;20055;-71
2021/05/11 06:32:49;;;;;;;7.07;1.40;;;;;;;21.54;32.54;100792.09;3383613;29;20037;-71
2021/05/11 06:34:31;;;;;;;2.10;1.27;;;;;;;21.66;32.29;100800.22;3370257;29;20113;-71
2021/05/11 06:36:13;;;;;;;6.55;1.33;;;;;;;21.76;32.03;100792.28;3380938;29;20044;-72
2021/05/11 06:38:00;;;;;;;3.40;1.87;;;;;;;21.90;31.75;100783.84;3375807;29;20059;-71
2021/05/11 06:39:48;;;;;;;3.70;1.88;;;;;;;21.95;31.65;100786.66;3387129;29;20046;-71
2021/05/11 06:41:28;;;;;;;3.03;1.50;;;;;;;22.12;31.47;100792.94;3371940;29;20532;-71
2021/05/11 06:43:09;;;;;;;3.97;1.43;;;;;;;22.24;31.37;100789.38;3374458;29;20139;-71
2021/05/11 06:48:29;;;;;;;1.23;1.05;;;;;;;22.46;30.81;100790.28;3397560;29;20051;-71
2021/05/11 06:50:15;;;;;;;6.07;1.25;;;;;;;22.57;30.81;100786.66;3391976;29;20507;-71
2021/05/11 06:53:56;;;;;;;3.92;1.20;;;;;;;22.74;30.47;100778.47;3382347;29;20059;-72
2021/05/11 06:55:40;;;;;;;5.43;1.10;;;;;;;22.82;30.58;100774.53;3386683;29;20043;-71
2021/05/11 06:57:20;;;;;;;3.00;1.00;;;;;;;22.97;30.27;100785.66;3378137;29;20610;-72
2021/05/11 06:59:04;;;;;;;3.17;1.33;;;;;;;23.08;30.02;100790.19;3386897;29;20040;-72
2021/05/11 07:00:45;;;;;;;1.30;1.03;;;;;;;23.21;30.03;100780.84;3372592;29;20138;-70
2021/05/11 07:02:26;;;;;;;1.90;1.10;;;;;;;23.29;29.89;100779.59;3377820;29;20539;-72
2021/05/11 07:04:06;;;;;;;1.60;1.20;;;;;;;23.32;29.92;100767.38;3378316;29;20131;-73
2021/05/11 07:05:49;;;;;;;2.70;1.17;;;;;;;23.43;29.82;100786.28;3388021;29;20040;-71
2021/05/11 07:07:32;;;;;;;1.50;1.40;;;;;;;23.52;29.80;100789.41;3381556;29;20047;-72
2021/05/11 07:09:17;;;;;;;4.78;1.38;;;;;;;23.59;29.73;100778.31;3381493;29;20052;-72
2021/05/11 07:11:01;;;;;;;2.53;1.15;;;;;;;23.64;29.42;100779.19;3368338;29;20040;-71
2021/05/11 07:14:41;;;;;;;2.67;1.05;;;;;;;23.78;28.97;100782.38;3389560;29;20051;-71
2021/05/11 07:16:24;;;;;;;3.30;1.30;;;;;;;23.89;29.17;100778.69;3388736;29;20039;-70
2021/05/11 07:18:16;;;;;;;8.73;1.42;;;;;;;24.10;29.10;100776.16;3388664;29;20044;-72
2021/05/11 07:19:57;;;;;;;2.60;1.13;;;;;;;24.26;29.04;100777.94;3401532;29;20043;-72
2021/05/11 07:21:38;;;;;;;3.97;1.20;;;;;;;24.41;28.74;100769.06;3402456;29;20047;-72
2021/05/11 07:23:21;;;;;;;2.20;1.40;;;;;;;24.56;28.45;100782.03;3402592;29;20075;-72
2021/05/11 07:25:11;;;;;;;1.20;1.10;;;;;;;24.64;28.00;100765.19;3402307;29;20407;-72
2021/05/11 07:29:36;;;;;;;1.20;1.10;;;;;;;24.94;27.65;100777.41;3367481;29;20056;-73
2021/05/11 07:31:15;;;;;;;4.88;1.08;;;;;;;25.02;27.43;100776.91;3396250;29;20043;-72
2021/05/11 07:32:59;;;;;;;3.45;1.08;;;;;;;25.08;27.11;100759.47;3401041;29;20098;-73
2021/05/11 07:34:43;;;;;;;2.17;0.98;;;;;;;25.27;27.36;100768.03;3396748;29;20170;-71
2021/05/11 07:36:27;;;;;;;3.22;1.15;;;;;;;25.44;27.30;100765.94;3388434;29;20040;-72
2021/05/11 07:40:10;;;;;;;3.45;1.20;;;;;;;25.82;27.20;100769.34;3386923;29;20059;-73
2021/05/11 07:41:53;;;;;;;6.00;1.52;;;;;;;25.89;26.95;100755.44;3387172;29;20400;-73
2021/05/11 07:43:37;;;;;;;2.30;1.10;;;;;;;26.07;27.03;100763.13;3388179;29;20094;-71
2021/05/11 07:47:27;;;;;;;2.85;1.23;;;;;;;26.39;26.89;100763.97;3388025;29;20046;-72
2021/05/11 07:49:42;;;;;;;7.85;1.33;;;;;;;26.53;26.93;100754.94;3386935;29;20507;-72
2021/05/11 07:51:56;;;;;;;;;;;;;;;26.76;26.98;100761.75;3383139;29;20055;-71
2021/05/11 08:05:26;;;;;;;4.63;1.42;;;;;;;27.66;26.58;100738.19;3381184;29;20100;-71
2021/05/11 08:10:54;;;;;;;4.88;1.65;;;;;;;27.80;26.12;100744.69;3383591;29;20051;-73
2021/05/11 08:14:46;;;;;;;2.83;1.40;;;;;;;28.00;25.47;100730.03;3381269;29;20052;-71
2021/05/11 08:16:27;;;;;;;2.80;1.38;;;;;;;28.10;25.53;100737.34;3383912;29;20032;-72
2021/05/11 08:27:53;;;;;;;8.27;2.15;;;;;;;28.36;24.94;100728.91;3367487;29;20041;-71
2021/05/11 08:29:34;;;;;;;7.35;2.15;;;;;;;28.45;25.58;100729.97;3379066;29;20476;-72
2021/05/11 08:31:14;;;;;;;6.13;1.70;;;;;;;28.56;25.58;100712.31;3381647;29;20036;-72
2021/05/11 08:32:55;;;;;;;3.20;1.40;;;;;;;28.63;25.25;100710.03;3381031;29;20522;-71
2021/05/11 08:34:36;;;;;;;3.17;1.20;;;;;;;28.70;25.02;100712.44;3380407;29;20399;-71
2021/05/11 08:36:17;;;;;;;;;;;;;;;28.87;25.27;100717.47;3382365;29;20525;-71
2021/05/11 08:37:58;;;;;;;6.22;1.90;;;;;;;28.93;25.38;100719.03;3381394;29;19923;-73
2021/05/11 08:39:39;;;;;;;2.97;1.70;;;;;;;29.04;24.63;100717.81;3381750;29;20500;-73
2021/05/11 08:41:20;;;;;;;;;;;;;;;29.26;24.91;100716.47;3369939;29;20040;-73
2021/05/11 08:43:08;;;;;;;4.82;1.60;;;;;;;29.24;24.44;100725.00;3380367;29;20415;-74
2021/05/11 08:44:50;;;;;;;3.47;1.52;;;;;;;29.28;24.38;100717.81;3382703;29;20405;-75
2021/05/11 08:46:30;;;;;;;5.13;1.85;;;;;;;29.37;23.79;100719.91;3382087;29;20047;-73
2021/05/11 08:48:14;;;;;;;7.07;3.40;;;;;;;29.44;24.36;100715.69;3383461;29;20135;-73
2021/05/11 08:49:54;;;;;;;5.50;2.92;;;;;;;29.57;23.97;100709.44;3378208;29;20048;-72
2021/05/11 08:51:44;;;;;;;6.40;2.50;;;;;;;29.74;24.11;100710.88;3378997;29;20532;-73
2021/05/11 09:07:55;;;;;;;3.87;1.53;;;;;;;30.68;23.69;100703.53;3353907;29;20091;-71
2021/05/11 09:26:22;;;;;;;5.82;1.83;;;;;;;31.47;22.75;100687.59;3381152;29;20051;-72
2021/05/11 09:28:41;;;;;;;5.10;1.67;;;;;;;31.61;22.84;100682.03;3379225;29;20050;-73
2021/05/11 09:30:47;;;;;;;2.67;1.02;;;;;;;31.60;22.18;100683.19;3381159;29;20047;-72
2021/05/11 09:34:39;;;;;;;3.70;1.40;;;;;;;31.70;22.68;100669.16;3379171;29;20148;-72
2021/05/11 09:56:15;;;;;;;5.00;1.40;;;;;;;32.79;21.94;100654.19;3374887;29;20419;-71
2021/05/11 09:58:23;;;;;;;5.75;1.27;;;;;;;32.85;21.73;100663.16;3382754;29;20046;-74
2021/05/11 10:31:31;;;;;;;5.70;2.88;;;;;;;33.46;22.17;100644.72;3376873;29;20083;-72
2021/05/11 10:31:50;;;;;;;10.57;3.65;;;;;;;33.63;22.21;100641.16;3377089;29;20055;-72
2021/05/11 10:46:59;;;;;;;2.55;1.50;;;;;;;33.88;21.26;100623.72;3363827;29;20490;-73
2021/05/11 10:48:41;;;;;;;3.22;1.10;;;;;;;33.83;20.58;100614.78;3363876;29;20048;-73
2021/05/11 10:50:50;;;;;;;2.80;1.30;;;;;;;33.97;20.84;100620.09;3363706;29;20055;-75
2021/05/11 10:52:43;;;;;;;1.30;1.20;;;;;;;33.98;21.19;100616.22;3362664;29;20087;-73
2021/05/11 10:54:36;;;;;;;3.88;1.75;;;;;;;34.12;21.58;100613.25;3363711;29;20045;-73
2021/05/11 10:56:40;;;;;;;4.63;1.25;;;;;;;34.24;21.17;100624.47;3363755;29;20200;-73
2021/05/11 10:58:23;;;;;;;3.40;1.67;;;;;;;34.33;21.49;100624.41;3363798;29;20053;-73
2021/05/11 11:02:37;;;;;;;1.48;1.25;;;;;;;34.45;21.48;100624.53;3355408;29;20068;-73
2021/05/11 11:04:21;;;;;;;2.65;1.40;;;;;;;34.53;21.41;100618.13;3363882;29;20059;-72
2021/05/11 11:06:02;;;;;;;3.58;1.58;;;;;;;34.53;20.98;100607.88;3363961;29;20092;-74
2021/05/11 11:07:43;;;;;;;3.20;1.15;;;;;;;34.60;20.71;100610.16;3363678;29;20109;-72
2021/05/11 11:09:30;;;;;;;;;;;;;;;34.76;21.54;100613.16;3364223;29;20041;-72
2021/05/11 11:11:14;;;;;;;3.33;1.92;;;;;;;34.70;20.57;100614.50;3363684;29;19979;-73
2021/05/11 11:12:56;;;;;;;3.22;2.15;;;;;;;34.67;20.57;100612.38;3349643;29;20053;-74
2021/05/11 11:14:42;;;;;;;1.77;1.27;;;;;;;34.65;20.88;100607.19;3360946;29;20052;-73
2021/05/11 11:16:23;;;;;;;4.45;1.50;;;;;;;34.62;20.56;100607.03;3363763;29;20053;-74
2021/05/11 11:18:04;;;;;;;2.40;1.45;;;;;;;34.67;20.75;100604.91;3336842;29;20622;-74
2021/05/11 11:19:53;;;;;;;3.88;1.42;;;;;;;34.76;20.68;100607.59;3358375;29;20072;-75
2021/05/11 11:23:54;;;;;;;3.10;1.60;;;;;;;34.90;20.69;100597.09;3363274;29;20064;-72